This is the latest recevied weather packets stored in our database for station/object EB2BAG-11. If no packets are shown the sender has not sent any weather packets the latest 10 day(s).
| Time | Temp. | Humidity | Pressure | Rain* | Wind** | Luminosity | Snow |
|---|---|---|---|---|---|---|---|
| 1777422918 | 16.67° C | 84% | 1011.9 hPa | - | - | - | - |
| 1777421718 | 17.22° C | 82% | 1012 hPa | - | - | - | - |
| 1777420518 | 16.67° C | 85% | 1012.1 hPa | - | - | - | - |
| 1777419318 | 17.22° C | 85% | 1012.2 hPa | - | - | - | - |
| 1777418118 | 17.22° C | 84% | 1012.3 hPa | - | - | - | - |
| 1777416918 | 17.22° C | 85% | 1012.6 hPa | - | - | - | - |
| 1777415718 | 17.22° C | 83% | 1012.7 hPa | - | - | - | - |
| 1777414518 | 17.78° C | 83% | 1012.8 hPa | - | - | - | - |
| 1777413317 | 17.78° C | 83% | 1012.8 hPa | - | - | - | - |
| 1777412117 | 17.78° C | 83% | 1012.6 hPa | - | - | - | - |
| 1777410917 | 17.22° C | 84% | 1012.8 hPa | - | - | - | - |
| 1777409717 | 17.22° C | 84% | 1012.8 hPa | - | - | - | - |
| 1777408517 | 17.22° C | 84% | 1012.8 hPa | - | - | - | - |
| 1777407317 | 17.78° C | 83% | 1012.9 hPa | - | - | - | - |
| 1777406117 | 17.22° C | 85% | 1012.8 hPa | - | - | - | - |
| 1777404917 | 18.33° C | 79% | 1012.8 hPa | - | - | - | - |
| 1777403717 | 18.33° C | 77% | 1012.8 hPa | - | - | - | - |
| 1777402517 | 18.33° C | 76% | 1012.6 hPa | - | - | - | - |
| 1777401317 | 17.78° C | 79% | 1012.6 hPa | - | - | - | - |
| 1777400117 | 17.78° C | 81% | 1012.5 hPa | - | - | - | - |
| 1777398916 | 18.33° C | 79% | 1012.5 hPa | - | - | - | - |
| 1777397716 | 18.33° C | 78% | 1012.7 hPa | - | - | - | - |
| 1777396516 | 18.33° C | 80% | 1012.7 hPa | - | - | - | - |
| 1777395316 | 18.33° C | 80% | 1012.8 hPa | - | - | - | - |
| 1777394116 | 18.89° C | 78% | 1012.8 hPa | - | - | - | - |
* Rain since midnight (hover to see other rain measurements)
** Current wind speed in m/s (hover to see current wind gust speed)